createdAt,value
2023-02-28T00:01:24.921Z,6.80
2023-02-28T00:03:52.145Z,6.90
2023-02-28T00:06:22.600Z,6.90
2023-02-28T00:08:49.712Z,6.70
2023-02-28T00:11:17.153Z,6.70
2023-02-28T00:13:47.744Z,6.70
2023-02-28T00:16:16.348Z,6.70
2023-02-28T00:18:43.672Z,6.70
2023-02-28T00:21:13.967Z,6.70
2023-02-28T00:23:41.255Z,6.60
2023-02-28T00:26:18.677Z,6.50
2023-02-28T00:28:49.415Z,6.50
2023-02-28T00:31:16.486Z,6.70
2023-02-28T00:33:43.533Z,6.60
2023-02-28T00:36:11.748Z,6.60
2023-02-28T00:38:44.939Z,6.60
2023-02-28T00:41:12.187Z,6.60
2023-02-28T00:43:40.098Z,6.60
2023-02-28T00:46:08.052Z,6.50
2023-02-28T00:48:55.512Z,6.30
2023-02-28T00:51:27.912Z,6.30
2023-02-28T00:53:55.357Z,6.10
2023-02-28T00:56:44.061Z,6.10
2023-02-28T00:59:14.098Z,6.10
2023-02-28T01:01:41.155Z,6.00
2023-02-28T01:04:08.330Z,6.10
2023-02-28T01:06:35.777Z,6.30
2023-02-28T01:09:03.167Z,6.40
2023-02-28T01:11:31.048Z,6.40
2023-02-28T01:13:58.457Z,6.60
2023-02-28T01:16:29.544Z,6.70
2023-02-28T01:19:00.050Z,6.70
2023-02-28T01:21:27.578Z,6.80
2023-02-28T01:23:57.221Z,6.80
2023-02-28T01:26:24.500Z,6.80
2023-02-28T01:28:52.204Z,6.70
2023-02-28T01:31:19.971Z,6.50
2023-02-28T01:33:47.168Z,6.40
2023-02-28T01:36:20.332Z,6.30
2023-02-28T01:38:50.659Z,6.30
2023-02-28T01:41:31.572Z,6.40
2023-02-28T01:44:06.637Z,6.50
2023-02-28T01:46:36.428Z,6.60
2023-02-28T01:49:16.678Z,6.70
2023-02-28T01:52:01.774Z,6.70
2023-02-28T01:54:31.032Z,6.80
2023-02-28T01:57:08.321Z,6.80
2023-02-28T01:59:39.529Z,6.80
2023-02-28T02:02:06.761Z,6.80
2023-02-28T02:04:36.728Z,6.80
2023-02-28T02:07:03.921Z,6.70
2023-02-28T02:09:31.035Z,6.60
2023-02-28T02:11:58.150Z,6.60
2023-02-28T02:14:43.978Z,6.50
2023-02-28T02:17:34.095Z,6.60
2023-02-28T02:20:19.908Z,6.60
2023-02-28T02:22:59.156Z,6.60
2023-02-28T02:25:51.063Z,6.60
2023-02-28T02:28:47.103Z,6.60
2023-02-28T02:31:29.707Z,6.60
2023-02-28T02:34:21.126Z,6.60
2023-02-28T02:36:53.303Z,6.60
2023-02-28T02:39:34.088Z,6.60
2023-02-28T02:42:02.746Z,6.60
2023-02-28T02:44:45.875Z,6.60
2023-02-28T02:47:15.830Z,6.50
2023-02-28T02:49:56.611Z,6.50
2023-02-28T02:52:26.006Z,6.50
2023-02-28T02:54:56.461Z,6.50
2023-02-28T02:57:52.243Z,6.60
2023-02-28T03:00:21.126Z,6.60
2023-02-28T03:02:48.635Z,6.70
2023-02-28T03:05:31.394Z,6.70
2023-02-28T03:07:58.518Z,6.70
2023-02-28T03:10:29.074Z,6.70
2023-02-28T03:13:00.759Z,6.60
2023-02-28T03:15:49.339Z,6.60
2023-02-28T03:18:31.784Z,6.60
2023-02-28T03:21:12.276Z,6.50
2023-02-28T03:23:40.112Z,6.60
2023-02-28T03:26:10.513Z,6.70
2023-02-28T03:28:55.092Z,6.60
2023-02-28T03:31:30.130Z,6.60
2023-02-28T03:34:01.396Z,6.60
2023-02-28T03:36:42.986Z,6.60
2023-02-28T03:39:11.101Z,6.60
2023-02-28T03:41:58.172Z,6.60
2023-02-28T03:44:36.433Z,6.60
2023-02-28T03:47:10.457Z,6.60
2023-02-28T03:50:02.466Z,6.70
2023-02-28T03:52:32.990Z,6.70
2023-02-28T03:55:01.968Z,6.60
2023-02-28T03:57:57.877Z,6.50
2023-02-28T04:00:34.022Z,6.50
2023-02-28T04:03:01.080Z,6.50
2023-02-28T04:05:29.306Z,6.60
2023-02-28T04:08:04.310Z,6.60
2023-02-28T04:10:31.354Z,6.60
2023-02-28T04:12:58.424Z,6.60
2023-02-28T04:15:25.940Z,6.50
2023-02-28T04:17:53.033Z,6.50
2023-02-28T04:20:20.345Z,6.50
2023-02-28T04:22:47.412Z,6.40
2023-02-28T04:25:14.453Z,6.40
2023-02-28T04:27:41.443Z,6.30
2023-02-28T04:30:08.989Z,6.20
2023-02-28T04:32:36.014Z,6.10
2023-02-28T04:35:03.819Z,5.90
2023-02-28T04:37:30.833Z,5.90
2023-02-28T04:39:57.992Z,5.80
2023-02-28T04:42:25.127Z,5.80
2023-02-28T04:44:52.329Z,5.90
2023-02-28T04:47:20.116Z,5.90
2023-02-28T04:49:47.590Z,5.90
2023-02-28T04:52:14.640Z,5.90
2023-02-28T04:54:42.761Z,5.90
2023-02-28T04:57:09.788Z,5.80
2023-02-28T04:59:36.863Z,5.70
2023-02-28T05:02:08.134Z,5.70
2023-02-28T05:04:35.718Z,5.70
2023-02-28T05:07:03.304Z,5.70
2023-02-28T05:09:30.469Z,5.60
2023-02-28T05:11:57.986Z,5.60
2023-02-28T05:14:25.120Z,5.60
2023-02-28T05:16:52.308Z,5.70
2023-02-28T05:19:19.353Z,5.70
2023-02-28T05:21:54.044Z,5.70
2023-02-28T05:24:26.430Z,5.80
2023-02-28T05:26:54.429Z,5.70
2023-02-28T05:29:21.806Z,5.70
2023-02-28T05:31:49.318Z,5.50
2023-02-28T05:34:18.072Z,5.50
2023-02-28T05:36:45.155Z,5.50
2023-02-28T05:39:14.193Z,5.60
2023-02-28T05:41:42.850Z,5.70
2023-02-28T05:44:10.303Z,5.70
2023-02-28T05:46:37.346Z,5.50
2023-02-28T05:49:04.730Z,5.40
2023-02-28T05:51:32.826Z,5.50
2023-02-28T05:54:01.742Z,5.40
2023-02-28T05:56:30.071Z,5.40
2023-02-28T05:58:57.433Z,5.50
2023-02-28T06:01:38.421Z,5.70
2023-02-28T06:04:07.037Z,5.80
2023-02-28T06:06:38.270Z,5.90
2023-02-28T06:09:06.415Z,5.90
2023-02-28T06:11:34.012Z,6.00
2023-02-28T06:14:02.031Z,6.10
2023-02-28T06:16:29.756Z,6.00
2023-02-28T06:18:58.887Z,6.20
2023-02-28T06:21:28.982Z,6.20
2023-02-28T06:24:00.819Z,6.30
2023-02-28T06:26:28.821Z,6.30
2023-02-28T06:28:56.150Z,6.40
2023-02-28T06:31:24.312Z,6.40
2023-02-28T06:33:51.528Z,6.40
2023-02-28T06:36:19.658Z,6.40
2023-02-28T06:38:46.915Z,6.40
2023-02-28T06:41:14.091Z,6.30
2023-02-28T06:43:42.487Z,6.30
2023-02-28T06:46:11.703Z,6.30
2023-02-28T06:48:38.871Z,6.20
2023-02-28T06:51:07.804Z,6.20
2023-02-28T06:53:36.195Z,6.20
2023-02-28T06:56:12.426Z,6.30
2023-02-28T06:58:41.510Z,6.30
2023-02-28T07:01:09.084Z,6.30
2023-02-28T07:03:37.089Z,6.40
2023-02-28T07:06:05.221Z,6.40
2023-02-28T07:08:32.958Z,6.50
2023-02-28T07:11:00.535Z,6.50
2023-02-28T07:13:28.756Z,6.50
2023-02-28T07:16:00.096Z,6.50
2023-02-28T07:18:27.859Z,6.60
2023-02-28T07:20:55.143Z,6.70
2023-02-28T07:23:22.897Z,6.90
2023-02-28T07:25:51.276Z,7.00
2023-02-28T07:28:18.626Z,7.20
2023-02-28T07:30:46.085Z,7.40
2023-02-28T07:33:14.172Z,7.40
2023-02-28T07:35:41.803Z,7.50
2023-02-28T07:38:09.175Z,7.50
2023-02-28T07:40:36.846Z,7.70
2023-02-28T07:43:05.622Z,7.80
2023-02-28T07:45:36.312Z,8.00
2023-02-28T07:48:03.524Z,8.10
2023-02-28T07:50:32.033Z,8.00
2023-02-28T07:53:00.290Z,8.00
2023-02-28T07:55:27.607Z,8.00
2023-02-28T07:57:54.975Z,8.10
2023-02-28T08:00:25.975Z,8.00
2023-02-28T08:02:56.330Z,8.00
2023-02-28T08:05:24.018Z,8.00
2023-02-28T08:07:51.471Z,8.10
2023-02-28T08:10:18.845Z,8.10
2023-02-28T08:12:46.076Z,8.10
2023-02-28T08:15:13.296Z,8.10
2023-02-28T08:17:40.803Z,8.20
2023-02-28T08:20:09.799Z,8.30
2023-02-28T08:22:37.035Z,8.40
2023-02-28T08:25:04.376Z,8.40
2023-02-28T08:27:31.536Z,8.50
2023-02-28T08:29:59.004Z,8.50
2023-02-28T08:32:30.126Z,8.40
2023-02-28T08:35:06.314Z,8.50
2023-02-28T08:40:15.364Z,8.80
2023-02-28T08:42:46.172Z,8.90
2023-02-28T08:51:47.472Z,8.80
2023-02-28T08:54:17.911Z,8.70
2023-02-28T08:56:45.706Z,8.70
2023-02-28T08:59:18.383Z,8.50
2023-02-28T09:01:48.533Z,8.50
2023-02-28T09:04:18.603Z,8.40
2023-02-28T09:06:48.416Z,8.40
2023-02-28T09:09:19.076Z,8.40
2023-02-28T09:11:46.289Z,8.40
2023-02-28T09:14:13.546Z,8.50
2023-02-28T09:17:24.356Z,8.70
2023-02-28T09:19:58.817Z,8.80
2023-02-28T09:24:57.442Z,8.90
2023-02-28T09:27:26.418Z,9.00
2023-02-28T09:45:35.662Z,9.70
2023-02-28T09:48:23.951Z,9.80
2023-02-28T09:50:57.293Z,9.80
2023-02-28T09:53:43.987Z,9.80
2023-02-28T09:56:58.683Z,9.80
2023-02-28T09:59:46.600Z,9.80
2023-02-28T10:02:51.927Z,9.80
2023-02-28T10:05:32.753Z,9.80
2023-02-28T10:08:32.627Z,9.70
2023-02-28T10:11:04.370Z,9.70
2023-02-28T10:14:04.521Z,9.80
2023-02-28T10:16:59.209Z,9.80
2023-02-28T10:19:26.578Z,9.90
2023-02-28T10:22:36.289Z,9.90
2023-02-28T10:25:06.959Z,9.80
2023-02-28T10:27:36.517Z,9.80
2023-02-28T10:30:05.117Z,9.80
2023-02-28T10:32:36.555Z,9.60
2023-02-28T10:35:37.102Z,9.60
2023-02-28T10:38:10.280Z,9.50
2023-02-28T10:40:37.630Z,9.50
2023-02-28T10:43:14.442Z,9.60
2023-02-28T10:46:30.873Z,9.80
2023-02-28T10:49:06.730Z,10.10
2023-02-28T10:51:43.876Z,10.20
2023-02-28T10:54:34.150Z,10.20
2023-02-28T10:57:21.714Z,10.20
2023-02-28T10:59:52.803Z,10.20
2023-02-28T11:02:39.802Z,10.10
2023-02-28T11:05:31.094Z,9.90
2023-02-28T11:08:15.378Z,9.90
2023-02-28T11:13:32.415Z,9.90
2023-02-28T11:16:02.009Z,9.70
2023-02-28T11:18:36.915Z,9.70
2023-02-28T11:21:05.551Z,9.70
2023-02-28T11:23:36.970Z,9.60
2023-02-28T11:26:12.395Z,9.60
2023-02-28T11:28:42.010Z,9.60
2023-02-28T11:31:20.274Z,9.60
2023-02-28T11:33:54.718Z,9.60
2023-02-28T11:36:45.080Z,9.60
2023-02-28T11:47:41.693Z,9.50
2023-02-28T11:54:22.735Z,9.50
2023-02-28T12:06:50.773Z,9.80
2023-02-28T12:09:43.017Z,9.60
2023-02-28T12:13:08.856Z,9.50
2023-02-28T12:36:50.631Z,9.30
2023-02-28T12:39:48.387Z,8.90
2023-02-28T13:12:59.314Z,8.80
2023-02-28T13:15:30.125Z,8.80
2023-02-28T13:18:28.699Z,8.80
2023-02-28T13:21:00.276Z,8.80
2023-02-28T13:24:07.239Z,8.60
2023-02-28T13:26:42.724Z,8.60
2023-02-28T13:29:12.913Z,8.50
2023-02-28T13:32:29.944Z,8.40
2023-02-28T13:34:57.697Z,8.30
2023-02-28T13:37:30.732Z,8.40
2023-02-28T13:40:13.534Z,8.50
2023-02-28T13:42:52.634Z,8.50
2023-02-28T13:45:31.994Z,8.40
2023-02-28T13:48:03.498Z,8.30
2023-02-28T13:50:42.886Z,8.30
2023-02-28T13:53:41.135Z,8.30
2023-02-28T13:56:35.038Z,8.50
2023-02-28T13:59:29.416Z,8.50
2023-02-28T14:02:50.165Z,8.50
2023-02-28T14:05:18.389Z,8.40
2023-02-28T14:07:55.684Z,8.30
2023-02-28T14:10:33.928Z,8.30
2023-02-28T14:13:05.040Z,8.30
2023-02-28T14:15:58.351Z,8.50
2023-02-28T14:18:33.870Z,8.60
2023-02-28T14:21:14.725Z,8.60
2023-02-28T14:23:45.785Z,8.60
2023-02-28T14:26:43.921Z,8.50
2023-02-28T14:29:41.780Z,8.40
2023-02-28T14:32:37.035Z,8.30
2023-02-28T14:35:22.847Z,8.30
2023-02-28T14:37:50.796Z,8.20
2023-02-28T14:40:21.457Z,8.00
2023-02-28T14:42:50.006Z,7.90
2023-02-28T14:45:21.877Z,7.90
2023-02-28T14:47:50.565Z,7.70
2023-02-28T14:50:27.100Z,7.80
2023-02-28T14:52:55.091Z,7.90
2023-02-28T14:55:26.307Z,7.80
2023-02-28T14:57:58.148Z,7.90
2023-02-28T15:00:30.436Z,7.90
2023-02-28T15:02:59.100Z,7.90
2023-02-28T15:05:33.729Z,7.90
2023-02-28T15:08:17.331Z,7.90
2023-02-28T15:10:55.103Z,7.90
2023-02-28T15:13:22.368Z,7.80
2023-02-28T15:16:03.970Z,7.70
2023-02-28T15:18:33.830Z,7.70
2023-02-28T15:21:08.796Z,7.70
2023-02-28T15:23:38.654Z,7.80
2023-02-28T15:26:46.715Z,7.80
2023-02-28T15:29:27.748Z,7.80
2023-02-28T15:32:06.059Z,7.90
2023-02-28T15:34:43.483Z,7.90
2023-02-28T15:37:31.969Z,7.80
2023-02-28T15:40:06.342Z,7.70
2023-02-28T15:43:09.152Z,7.70
2023-02-28T16:07:22.955Z,7.90
2023-02-28T16:10:14.243Z,8.00
2023-02-28T16:24:25.404Z,7.70
2023-02-28T16:29:39.185Z,7.50
2023-02-28T16:32:09.434Z,7.50
2023-02-28T16:37:32.756Z,7.50
2023-02-28T16:40:01.712Z,7.50
2023-02-28T16:42:34.439Z,7.50
2023-02-28T16:45:06.707Z,7.50
2023-02-28T16:47:37.815Z,7.60
2023-02-28T16:50:20.151Z,7.60
2023-02-28T16:52:48.214Z,7.60
2023-02-28T16:55:16.003Z,7.70
2023-02-28T16:57:44.208Z,7.70
2023-02-28T17:00:15.385Z,7.70
2023-02-28T17:02:46.217Z,7.70
2023-02-28T17:05:16.370Z,7.70
2023-02-28T17:07:47.713Z,7.50
2023-02-28T17:10:17.314Z,7.50
2023-02-28T17:12:48.183Z,7.50
2023-02-28T17:15:20.662Z,7.50
2023-02-28T17:17:49.279Z,7.60
2023-02-28T17:20:18.594Z,7.60
2023-02-28T17:22:46.158Z,7.70
2023-02-28T17:25:13.650Z,7.70
2023-02-28T17:27:42.150Z,7.80
2023-02-28T17:35:55.745Z,7.70
2023-02-28T17:38:24.816Z,7.70
2023-02-28T17:40:52.270Z,7.70
2023-02-28T17:43:19.414Z,7.70
2023-02-28T17:45:46.784Z,7.70
2023-02-28T17:48:14.535Z,7.70
2023-02-28T17:50:42.259Z,7.70
2023-02-28T17:53:13.858Z,7.80
2023-02-28T17:55:43.692Z,7.80
2023-02-28T17:58:12.925Z,7.80
2023-02-28T18:03:27.158Z,7.80
2023-02-28T18:06:00.134Z,7.80
2023-02-28T18:08:32.199Z,7.80
2023-02-28T18:11:00.987Z,7.80
2023-02-28T18:13:30.039Z,7.80
2023-02-28T18:15:57.788Z,7.80
2023-02-28T18:18:32.258Z,7.80
2023-02-28T18:21:02.498Z,7.80
2023-02-28T18:23:32.488Z,7.70
2023-02-28T18:26:03.443Z,7.60
2023-02-28T18:28:31.311Z,7.40
2023-02-28T18:30:59.271Z,7.40
2023-02-28T18:33:29.558Z,7.40
2023-02-28T18:36:00.022Z,7.50
2023-02-28T18:38:28.201Z,7.60
2023-02-28T18:41:01.039Z,7.70
2023-02-28T18:43:29.942Z,7.80
2023-02-28T18:45:58.164Z,7.80
2023-02-28T18:48:25.430Z,7.70
2023-02-28T18:50:55.512Z,7.70
2023-02-28T18:53:23.517Z,7.60
2023-02-28T18:55:50.946Z,7.60
2023-02-28T18:58:18.353Z,7.50
2023-02-28T19:00:45.877Z,7.40
2023-02-28T19:03:13.445Z,7.20
2023-02-28T19:05:40.878Z,7.00
2023-02-28T19:08:11.523Z,7.10
2023-02-28T19:10:42.096Z,7.20
2023-02-28T19:13:14.977Z,7.30
2023-02-28T19:15:42.150Z,7.40
2023-02-28T19:18:10.111Z,7.50
2023-02-28T19:20:37.841Z,7.50
2023-02-28T19:23:05.660Z,7.50
2023-02-28T19:25:33.152Z,7.50
2023-02-28T19:28:01.169Z,7.60
2023-02-28T19:30:28.848Z,7.60
2023-02-28T19:32:57.468Z,7.60
2023-02-28T19:35:26.101Z,7.60
2023-02-28T19:37:57.018Z,7.60
2023-02-28T19:40:26.136Z,7.60
2023-02-28T19:42:53.549Z,7.60
2023-02-28T19:45:21.035Z,7.50
2023-02-28T19:47:49.608Z,7.50
2023-02-28T19:50:17.721Z,7.50
2023-02-28T19:55:30.693Z,7.30
2023-02-28T19:58:00.274Z,7.40
2023-02-28T20:00:28.570Z,7.40
2023-02-28T20:02:56.524Z,7.30
2023-02-28T20:05:26.429Z,7.30
2023-02-28T20:07:55.653Z,7.30
2023-02-28T20:10:24.479Z,7.30
2023-02-28T20:12:52.685Z,7.30
2023-02-28T20:15:22.491Z,7.50
2023-02-28T20:17:54.942Z,7.50
2023-02-28T20:25:57.614Z,7.60
2023-02-28T20:28:29.938Z,7.70
2023-02-28T20:31:06.617Z,7.70
2023-02-28T20:36:31.180Z,7.60
2023-02-28T20:39:01.290Z,7.40
2023-02-28T20:41:28.752Z,7.40
2023-02-28T20:44:06.382Z,7.40
2023-02-28T20:46:41.354Z,7.40
2023-02-28T20:49:20.931Z,7.50
2023-02-28T20:51:48.520Z,7.50
2023-02-28T20:54:18.169Z,7.50
2023-02-28T20:56:46.164Z,7.40
2023-02-28T20:59:14.854Z,7.20
2023-02-28T21:01:46.790Z,7.20
2023-02-28T21:04:24.257Z,7.10
2023-02-28T21:06:52.520Z,7.10
2023-02-28T21:09:21.885Z,7.10
2023-02-28T21:11:52.275Z,7.20
2023-02-28T21:14:23.130Z,7.30
2023-02-28T21:16:51.349Z,7.30
2023-02-28T21:19:19.478Z,7.40
2023-02-28T21:21:48.802Z,7.50
2023-02-28T21:24:18.935Z,7.50
2023-02-28T21:26:46.621Z,7.50
2023-02-28T21:29:14.989Z,7.60
2023-02-28T21:31:42.949Z,7.60
2023-02-28T21:34:12.067Z,7.50
2023-02-28T21:36:40.966Z,7.50
2023-02-28T21:39:10.402Z,7.40
2023-02-28T21:41:37.657Z,7.40
2023-02-28T21:44:05.281Z,7.40
2023-02-28T21:46:33.806Z,7.40
2023-02-28T21:49:03.048Z,7.40
2023-02-28T21:51:33.857Z,7.40
2023-02-28T21:54:01.639Z,7.40
2023-02-28T21:56:33.653Z,7.20
2023-02-28T21:59:01.877Z,7.00
2023-02-28T22:01:35.750Z,7.00
2023-02-28T22:04:04.506Z,6.90
2023-02-28T22:06:33.717Z,7.00
2023-02-28T22:09:03.188Z,7.00
2023-02-28T22:11:31.708Z,7.00
2023-02-28T22:14:00.535Z,7.10
2023-02-28T22:16:31.238Z,7.10
2023-02-28T22:19:01.033Z,7.10
2023-02-28T22:21:28.595Z,7.20
2023-02-28T22:23:59.742Z,7.20
2023-02-28T22:26:28.767Z,7.20
2023-02-28T22:28:56.419Z,7.20
2023-02-28T22:31:26.931Z,7.30
2023-02-28T22:34:00.112Z,7.30
2023-02-28T22:36:29.734Z,7.30
2023-02-28T22:38:58.052Z,7.20
2023-02-28T22:41:27.083Z,7.20
2023-02-28T22:43:56.533Z,7.30
2023-02-28T22:46:24.877Z,7.30
2023-02-28T22:48:52.722Z,7.20
2023-02-28T22:51:26.009Z,7.20
2023-02-28T22:54:05.130Z,7.20
2023-02-28T22:56:33.609Z,7.10
2023-02-28T22:59:01.535Z,7.20
2023-02-28T23:01:31.952Z,7.20
2023-02-28T23:03:59.884Z,7.30
2023-02-28T23:06:34.730Z,7.30
2023-02-28T23:09:04.375Z,7.40
2023-02-28T23:11:50.424Z,7.40
2023-02-28T23:14:18.670Z,7.40
2023-02-28T23:16:51.594Z,7.40
2023-02-28T23:19:25.794Z,7.40
2023-02-28T23:21:53.369Z,7.40
2023-02-28T23:24:22.180Z,7.30
2023-02-28T23:26:51.049Z,7.30
2023-02-28T23:29:18.830Z,7.30
2023-02-28T23:31:46.364Z,7.20
2023-02-28T23:34:13.771Z,7.20
2023-02-28T23:36:46.432Z,7.20
2023-02-28T23:39:15.756Z,7.20
2023-02-28T23:41:43.301Z,7.20
2023-02-28T23:44:17.265Z,7.10
2023-02-28T23:46:45.560Z,7.10
2023-02-28T23:49:13.169Z,7.10
2023-02-28T23:51:40.307Z,7.10
2023-02-28T23:54:07.732Z,7.10
2023-02-28T23:56:35.271Z,6.90
2023-02-28T23:59:02.671Z,6.90
